航空気象通報

ウインドサーファーのための航空気象通報による風予報です。

12/10-12/12の航空気象通報

2017年12月10日 23時04分38秒 | TAF
羽田空港
TAF AMD RJTT 101228Z 1012/1118 30008KT 9999 FEW020 SCT060
BECMG 1022/1100 19014KT
TEMPO 1103/1112 21022G32KT
日本時間10日21時-11日07時:300度から8ノットの風
07-09時:風が変化
09時-12日03時:190度から14ノットの風
但し、11日12-21時の間:時々210度から22ノット、突風32ノット


静岡空港
TAF RJNS 101105Z 1012/1118 32006KT 6000 -SHRA FEW005 BKN012
TEMPO 1013/1018 2000 SHRA BR FEW003 BKN005
BECMG 1016/1018 26020KT
TEMPO 1100/1106 26028G38KT
日本時間10日21時-11日01時:320度から6ノットの風
01-03時:風が変化
03時-12日03時:260度から20ノットの風
但し、11日09-15時の間:時々260度から28ノット、突風38ノット


福岡空港
TAF RJFF 101106Z 1012/1118 29015KT 9999 FEW020 SCT030 BKN040
TEMPO 1012/1021 29016G27KT
TEMPO 1106/1115 29020G30KT
TEMPO 1115/1118 4000 -SHSNRA
日本時間10日21時-12日03時:290度から15ノットの風
但し、10日21時-11日06時の間:時々290度から16ノット、突風27ノット
但し、10日06-24時の間:時々290度から20ノット、突風30ノット

但し、12日00-03時の間:時々

那覇空港
TAF ROAH 101105Z 1012/1118 34016KT 9999 FEW035 BKN045
日本時間10日21時-12日03時:340度から16ノットの風


石垣空港
TAF ROIG 101106Z 1012/1118 02014KT 9999 FEW025 BKN045
日本時間10日21時-12日03時:020度から14ノットの風


マウイのカフルイ空港
PHOG 101222Z 1012/1112 02008KT P6SM VCSH SCT025 BKN045
TEMPO 1012/1016 5SM -SHRA BKN025 OVC035
FM102000 03011KT P6SM VCSH SCT025 BKN040
FM110400 04006KT P6SM SCT030 SCT045 AMD LTD TO VIS AND WIND TIL 101600
ハワイ時間10日02-10時:020度から8ノットの風
10-18時:030度から11ノットの風

18時-11日02時:040度から6ノットの風

但し、10日02-06時の間:時々

サイパン空港
TAF PGSN 101120Z 1012/1112 10011KT P6SM VCSH FEW018 SCT040 SCT120
FM110000 13014KT P6SM VCSH FEW018 SCT040 SCT120
マリアナ時間10日22時-11日10時:100度から11ノットの風
10-22時:130度から14ノットの風

ジャンル:
お天気
コメント   この記事についてブログを書く
« 12/9-12/11の航空気象通報 | トップ | 12/11-12/13の航空気象通報 »
最近の画像もっと見る

コメントを投稿

ブログ作成者から承認されるまでコメントは反映されません。

TAF」カテゴリの最新記事